sensor_id;sensor_type;location;lat;lon;timestamp;P1;durP1;ratioP1;P2;durP2;ratioP2
73951;SDS011;62304;47.662;18.324;2022-11-20T00:02:38;40.33;;;15.90;;
73951;SDS011;62304;47.662;18.324;2022-11-20T00:05:41;43.42;;;15.85;;
73951;SDS011;62304;47.662;18.324;2022-11-20T00:08:44;38.38;;;15.48;;
73951;SDS011;62304;47.662;18.324;2022-11-20T00:11:47;36.70;;;14.90;;
73951;SDS011;62304;47.662;18.324;2022-11-20T00:14:50;39.37;;;15.60;;
73951;SDS011;62304;47.662;18.324;2022-11-20T00:17:52;39.13;;;15.17;;
73951;SDS011;62304;47.662;18.324;2022-11-20T00:21:05;37.33;;;15.80;;
73951;SDS011;62304;47.662;18.324;2022-11-20T00:24:10;40.25;;;15.60;;
73951;SDS011;62304;47.662;18.324;2022-11-20T00:27:13;34.30;;;14.73;;
73951;SDS011;62304;47.662;18.324;2022-11-20T00:30:16;39.13;;;15.27;;
73951;SDS011;62304;47.662;18.324;2022-11-20T00:33:18;37.97;;;14.47;;
73951;SDS011;62304;47.662;18.324;2022-11-20T00:36:22;41.95;;;15.10;;
73951;SDS011;62304;47.662;18.324;2022-11-20T00:39:26;39.75;;;15.07;;
73951;SDS011;62304;47.662;18.324;2022-11-20T00:42:29;35.33;;;15.02;;
73951;SDS011;62304;47.662;18.324;2022-11-20T00:45:34;39.60;;;15.33;;
73951;SDS011;62304;47.662;18.324;2022-11-20T00:48:37;38.67;;;15.80;;
73951;SDS011;62304;47.662;18.324;2022-11-20T00:51:40;38.97;;;14.70;;
73951;SDS011;62304;47.662;18.324;2022-11-20T00:54:43;40.75;;;16.65;;
73951;SDS011;62304;47.662;18.324;2022-11-20T00:57:45;39.63;;;15.00;;
73951;SDS011;62304;47.662;18.324;2022-11-20T01:00:48;37.43;;;15.57;;
73951;SDS011;62304;47.662;18.324;2022-11-20T01:03:52;36.07;;;15.03;;
73951;SDS011;62304;47.662;18.324;2022-11-20T01:06:56;40.40;;;16.80;;
73951;SDS011;62304;47.662;18.324;2022-11-20T01:09:59;38.55;;;15.45;;
73951;SDS011;62304;47.662;18.324;2022-11-20T01:13:02;36.53;;;14.95;;
73951;SDS011;62304;47.662;18.324;2022-11-20T01:19:34;37.13;;;15.33;;
73951;SDS011;62304;47.662;18.324;2022-11-20T01:22:36;38.83;;;14.82;;
73951;SDS011;62304;47.662;18.324;2022-11-20T01:25:39;36.60;;;14.63;;
73951;SDS011;62304;47.662;18.324;2022-11-20T01:28:42;35.15;;;13.45;;
73951;SDS011;62304;47.662;18.324;2022-11-20T01:31:45;38.83;;;15.33;;
73951;SDS011;62304;47.662;18.324;2022-11-20T01:34:48;35.60;;;14.43;;
73951;SDS011;62304;47.662;18.324;2022-11-20T01:37:50;36.00;;;14.68;;
73951;SDS011;62304;47.662;18.324;2022-11-20T01:40:54;32.35;;;13.10;;
73951;SDS011;62304;47.662;18.324;2022-11-20T01:43:59;36.97;;;14.70;;
73951;SDS011;62304;47.662;18.324;2022-11-20T01:47:02;33.03;;;14.17;;
73951;SDS011;62304;47.662;18.324;2022-11-20T01:50:12;36.05;;;14.07;;
73951;SDS011;62304;47.662;18.324;2022-11-20T01:53:20;42.67;;;16.23;;
73951;SDS011;62304;47.662;18.324;2022-11-20T01:56:26;41.63;;;15.32;;
73951;SDS011;62304;47.662;18.324;2022-11-20T01:59:30;39.67;;;16.62;;
73951;SDS011;62304;47.662;18.324;2022-11-20T02:02:34;42.30;;;17.27;;
73951;SDS011;62304;47.662;18.324;2022-11-20T02:05:41;43.30;;;17.10;;
73951;SDS011;62304;47.662;18.324;2022-11-20T02:08:50;40.10;;;17.33;;
73951;SDS011;62304;47.662;18.324;2022-11-20T02:11:54;44.95;;;17.37;;
73951;SDS011;62304;47.662;18.324;2022-11-20T02:14:58;40.60;;;16.87;;
73951;SDS011;62304;47.662;18.324;2022-11-20T02:18:01;43.20;;;17.43;;
73951;SDS011;62304;47.662;18.324;2022-11-20T02:21:06;40.67;;;16.98;;
73951;SDS011;62304;47.662;18.324;2022-11-20T02:24:16;40.70;;;16.02;;
73951;SDS011;62304;47.662;18.324;2022-11-20T02:27:20;40.08;;;17.10;;
73951;SDS011;62304;47.662;18.324;2022-11-20T02:30:24;37.42;;;15.95;;
73951;SDS011;62304;47.662;18.324;2022-11-20T02:33:27;31.13;;;12.93;;
73951;SDS011;62304;47.662;18.324;2022-11-20T02:36:30;37.47;;;14.60;;
73951;SDS011;62304;47.662;18.324;2022-11-20T02:39:36;29.55;;;11.65;;
73951;SDS011;62304;47.662;18.324;2022-11-20T02:42:39;30.83;;;12.80;;
73951;SDS011;62304;47.662;18.324;2022-11-20T02:45:42;30.88;;;11.90;;
73951;SDS011;62304;47.662;18.324;2022-11-20T02:48:45;28.90;;;11.53;;
73951;SDS011;62304;47.662;18.324;2022-11-20T02:51:48;29.13;;;10.90;;
73951;SDS011;62304;47.662;18.324;2022-11-20T02:54:52;25.80;;;10.93;;
73951;SDS011;62304;47.662;18.324;2022-11-20T02:57:55;24.35;;;10.20;;
73951;SDS011;62304;47.662;18.324;2022-11-20T03:00:59;26.80;;;10.40;;
73951;SDS011;62304;47.662;18.324;2022-11-20T03:04:02;24.80;;;9.83;;
73951;SDS011;62304;47.662;18.324;2022-11-20T03:07:05;25.10;;;9.37;;
73951;SDS011;62304;47.662;18.324;2022-11-20T03:10:08;26.25;;;10.75;;
73951;SDS011;62304;47.662;18.324;2022-11-20T03:13:11;25.85;;;10.50;;
73951;SDS011;62304;47.662;18.324;2022-11-20T03:16:17;24.48;;;9.93;;
73951;SDS011;62304;47.662;18.324;2022-11-20T03:19:22;24.43;;;9.70;;
73951;SDS011;62304;47.662;18.324;2022-11-20T03:22:25;30.03;;;11.13;;
73951;SDS011;62304;47.662;18.324;2022-11-20T03:25:28;28.08;;;10.98;;
73951;SDS011;62304;47.662;18.324;2022-11-20T03:28:30;27.10;;;10.70;;
73951;SDS011;62304;47.662;18.324;2022-11-20T03:31:35;33.85;;;13.27;;
73951;SDS011;62304;47.662;18.324;2022-11-20T03:34:44;28.20;;;11.63;;
73951;SDS011;62304;47.662;18.324;2022-11-20T03:37:47;28.43;;;11.40;;
73951;SDS011;62304;47.662;18.324;2022-11-20T03:40:50;27.05;;;10.77;;
73951;SDS011;62304;47.662;18.324;2022-11-20T03:43:54;31.50;;;12.05;;
73951;SDS011;62304;47.662;18.324;2022-11-20T03:46:58;30.83;;;10.82;;
73951;SDS011;62304;47.662;18.324;2022-11-20T03:50:01;24.13;;;10.23;;
73951;SDS011;62304;47.662;18.324;2022-11-20T03:53:05;29.60;;;11.40;;
73951;SDS011;62304;47.662;18.324;2022-11-20T03:56:08;26.67;;;10.30;;
73951;SDS011;62304;47.662;18.324;2022-11-20T03:59:12;24.45;;;9.77;;
73951;SDS011;62304;47.662;18.324;2022-11-20T04:02:15;27.67;;;10.88;;
73951;SDS011;62304;47.662;18.324;2022-11-20T04:05:18;29.77;;;12.13;;
73951;SDS011;62304;47.662;18.324;2022-11-20T04:08:20;28.23;;;10.50;;
73951;SDS011;62304;47.662;18.324;2022-11-20T04:11:25;30.30;;;11.90;;
73951;SDS011;62304;47.662;18.324;2022-11-20T04:14:32;26.15;;;10.55;;
73951;SDS011;62304;47.662;18.324;2022-11-20T04:17:35;29.52;;;11.63;;
73951;SDS011;62304;47.662;18.324;2022-11-20T04:20:38;24.70;;;10.47;;
73951;SDS011;62304;47.662;18.324;2022-11-20T04:23:41;27.70;;;11.03;;
73951;SDS011;62304;47.662;18.324;2022-11-20T04:26:43;29.67;;;11.65;;
73951;SDS011;62304;47.662;18.324;2022-11-20T04:29:46;32.97;;;12.02;;
73951;SDS011;62304;47.662;18.324;2022-11-20T04:32:49;33.03;;;12.70;;
73951;SDS011;62304;47.662;18.324;2022-11-20T04:35:51;36.67;;;13.97;;
73951;SDS011;62304;47.662;18.324;2022-11-20T04:38:55;34.05;;;14.00;;
73951;SDS011;62304;47.662;18.324;2022-11-20T04:42:02;32.17;;;13.73;;
73951;SDS011;62304;47.662;18.324;2022-11-20T04:45:24;34.35;;;14.95;;
73951;SDS011;62304;47.662;18.324;2022-11-20T04:48:27;35.83;;;13.55;;
73951;SDS011;62304;47.662;18.324;2022-11-20T04:51:31;30.70;;;12.70;;
73951;SDS011;62304;47.662;18.324;2022-11-20T04:54:35;34.10;;;12.93;;
73951;SDS011;62304;47.662;18.324;2022-11-20T04:57:37;36.50;;;13.80;;
73951;SDS011;62304;47.662;18.324;2022-11-20T05:00:40;33.08;;;13.38;;
73951;SDS011;62304;47.662;18.324;2022-11-20T05:03:43;30.73;;;12.95;;
73951;SDS011;62304;47.662;18.324;2022-11-20T05:06:47;32.93;;;12.00;;
73951;SDS011;62304;47.662;18.324;2022-11-20T05:09:50;32.00;;;11.70;;
73951;SDS011;62304;47.662;18.324;2022-11-20T05:12:53;35.38;;;12.27;;
73951;SDS011;62304;47.662;18.324;2022-11-20T05:16:00;32.88;;;13.13;;
73951;SDS011;62304;47.662;18.324;2022-11-20T05:19:04;30.55;;;12.30;;
73951;SDS011;62304;47.662;18.324;2022-11-20T05:22:07;32.20;;;12.90;;
73951;SDS011;62304;47.662;18.324;2022-11-20T05:25:10;32.17;;;11.57;;
73951;SDS011;62304;47.662;18.324;2022-11-20T05:28:13;30.23;;;12.30;;
73951;SDS011;62304;47.662;18.324;2022-11-20T05:31:21;30.30;;;11.40;;
73951;SDS011;62304;47.662;18.324;2022-11-20T05:34:29;31.15;;;11.40;;
73951;SDS011;62304;47.662;18.324;2022-11-20T05:37:32;28.73;;;10.63;;
73951;SDS011;62304;47.662;18.324;2022-11-20T05:40:35;32.20;;;10.23;;
73951;SDS011;62304;47.662;18.324;2022-11-20T05:43:39;28.15;;;11.55;;
73951;SDS011;62304;47.662;18.324;2022-11-20T05:46:42;30.10;;;11.15;;
73951;SDS011;62304;47.662;18.324;2022-11-20T05:49:45;25.15;;;10.25;;
73951;SDS011;62304;47.662;18.324;2022-11-20T05:52:48;29.83;;;11.73;;
73951;SDS011;62304;47.662;18.324;2022-11-20T05:55:59;28.00;;;10.40;;
73951;SDS011;62304;47.662;18.324;2022-11-20T05:59:03;28.48;;;11.50;;
73951;SDS011;62304;47.662;18.324;2022-11-20T06:02:06;29.98;;;11.52;;
73951;SDS011;62304;47.662;18.324;2022-11-20T06:05:08;31.33;;;11.55;;
73951;SDS011;62304;47.662;18.324;2022-11-20T06:08:11;31.73;;;12.03;;
73951;SDS011;62304;47.662;18.324;2022-11-20T06:11:14;24.10;;;8.73;;
73951;SDS011;62304;47.662;18.324;2022-11-20T06:14:18;32.47;;;12.35;;
73951;SDS011;62304;47.662;18.324;2022-11-20T06:17:21;39.55;;;14.32;;
73951;SDS011;62304;47.662;18.324;2022-11-20T06:20:24;35.10;;;14.10;;
73951;SDS011;62304;47.662;18.324;2022-11-20T06:23:27;45.53;;;17.00;;
73951;SDS011;62304;47.662;18.324;2022-11-20T06:26:31;49.07;;;16.63;;
73951;SDS011;62304;47.662;18.324;2022-11-20T06:29:34;34.25;;;13.48;;
73951;SDS011;62304;47.662;18.324;2022-11-20T06:32:37;35.58;;;13.82;;
73951;SDS011;62304;47.662;18.324;2022-11-20T06:35:40;51.88;;;18.10;;
73951;SDS011;62304;47.662;18.324;2022-11-20T06:38:42;44.90;;;17.03;;
73951;SDS011;62304;47.662;18.324;2022-11-20T06:41:45;47.85;;;16.87;;
73951;SDS011;62304;47.662;18.324;2022-11-20T06:44:48;37.85;;;14.43;;
73951;SDS011;62304;47.662;18.324;2022-11-20T06:47:51;36.63;;;13.90;;
73951;SDS011;62304;47.662;18.324;2022-11-20T06:50:54;36.03;;;13.62;;
73951;SDS011;62304;47.662;18.324;2022-11-20T06:53:57;33.87;;;12.37;;
73951;SDS011;62304;47.662;18.324;2022-11-20T06:57:00;35.43;;;12.60;;
73951;SDS011;62304;47.662;18.324;2022-11-20T07:00:03;34.65;;;13.38;;
73951;SDS011;62304;47.662;18.324;2022-11-20T07:03:07;33.13;;;12.98;;
73951;SDS011;62304;47.662;18.324;2022-11-20T07:06:11;31.42;;;12.80;;
73951;SDS011;62304;47.662;18.324;2022-11-20T07:09:13;35.40;;;13.10;;
73951;SDS011;62304;47.662;18.324;2022-11-20T07:12:17;40.07;;;16.33;;
73951;SDS011;62304;47.662;18.324;2022-11-20T07:15:20;36.60;;;15.98;;
73951;SDS011;62304;47.662;18.324;2022-11-20T07:18:24;32.40;;;13.73;;
73951;SDS011;62304;47.662;18.324;2022-11-20T07:21:27;37.20;;;14.02;;
73951;SDS011;62304;47.662;18.324;2022-11-20T07:24:30;35.43;;;12.97;;
73951;SDS011;62304;47.662;18.324;2022-11-20T07:27:32;33.87;;;13.63;;
73951;SDS011;62304;47.662;18.324;2022-11-20T07:30:35;37.47;;;13.15;;
73951;SDS011;62304;47.662;18.324;2022-11-20T07:33:38;36.55;;;13.82;;
73951;SDS011;62304;47.662;18.324;2022-11-20T07:36:41;32.25;;;11.85;;
73951;SDS011;62304;47.662;18.324;2022-11-20T07:39:44;38.83;;;13.80;;
73951;SDS011;62304;47.662;18.324;2022-11-20T07:42:50;39.80;;;14.80;;
73951;SDS011;62304;47.662;18.324;2022-11-20T07:45:57;41.80;;;16.52;;
73951;SDS011;62304;47.662;18.324;2022-11-20T07:49:02;38.55;;;15.27;;
73951;SDS011;62304;47.662;18.324;2022-11-20T07:52:07;34.30;;;13.90;;
73951;SDS011;62304;47.662;18.324;2022-11-20T07:55:13;34.63;;;13.53;;
73951;SDS011;62304;47.662;18.324;2022-11-20T07:58:18;38.33;;;15.00;;
73951;SDS011;62304;47.662;18.324;2022-11-20T08:01:22;34.08;;;13.45;;
73951;SDS011;62304;47.662;18.324;2022-11-20T08:04:25;33.83;;;12.65;;
73951;SDS011;62304;47.662;18.324;2022-11-20T08:07:28;31.15;;;11.82;;
73951;SDS011;62304;47.662;18.324;2022-11-20T08:10:31;30.33;;;12.50;;
73951;SDS011;62304;47.662;18.324;2022-11-20T08:13:33;35.33;;;12.97;;
73951;SDS011;62304;47.662;18.324;2022-11-20T08:16:55;33.72;;;11.60;;
73951;SDS011;62304;47.662;18.324;2022-11-20T08:19:58;32.25;;;11.77;;
73951;SDS011;62304;47.662;18.324;2022-11-20T08:23:02;28.05;;;10.70;;
73951;SDS011;62304;47.662;18.324;2022-11-20T08:26:07;32.23;;;12.43;;
73951;SDS011;62304;47.662;18.324;2022-11-20T08:29:10;27.33;;;10.83;;
73951;SDS011;62304;47.662;18.324;2022-11-20T08:32:13;31.77;;;12.43;;
73951;SDS011;62304;47.662;18.324;2022-11-20T08:35:16;26.15;;;10.82;;
73951;SDS011;62304;47.662;18.324;2022-11-20T08:38:18;35.85;;;13.20;;
73951;SDS011;62304;47.662;18.324;2022-11-20T08:41:22;30.43;;;10.80;;
73951;SDS011;62304;47.662;18.324;2022-11-20T08:44:28;32.97;;;13.33;;
73951;SDS011;62304;47.662;18.324;2022-11-20T08:47:31;29.85;;;11.20;;
73951;SDS011;62304;47.662;18.324;2022-11-20T08:50:35;31.73;;;12.95;;
73951;SDS011;62304;47.662;18.324;2022-11-20T08:53:38;31.23;;;12.60;;
73951;SDS011;62304;47.662;18.324;2022-11-20T08:56:42;34.17;;;12.60;;
73951;SDS011;62304;47.662;18.324;2022-11-20T08:59:45;31.57;;;12.90;;
73951;SDS011;62304;47.662;18.324;2022-11-20T09:03:08;34.08;;;13.27;;
73951;SDS011;62304;47.662;18.324;2022-11-20T09:06:11;34.20;;;13.73;;
73951;SDS011;62304;47.662;18.324;2022-11-20T09:09:14;33.47;;;12.68;;
73951;SDS011;62304;47.662;18.324;2022-11-20T09:12:17;31.83;;;11.63;;
73951;SDS011;62304;47.662;18.324;2022-11-20T09:15:20;34.07;;;12.30;;
73951;SDS011;62304;47.662;18.324;2022-11-20T09:18:24;30.77;;;11.88;;
73951;SDS011;62304;47.662;18.324;2022-11-20T09:21:27;34.65;;;12.05;;
73951;SDS011;62304;47.662;18.324;2022-11-20T09:24:31;33.00;;;12.27;;
73951;SDS011;62304;47.662;18.324;2022-11-20T09:27:34;36.40;;;14.10;;
73951;SDS011;62304;47.662;18.324;2022-11-20T09:30:38;35.97;;;13.33;;
73951;SDS011;62304;47.662;18.324;2022-11-20T09:33:40;35.95;;;12.63;;
73951;SDS011;62304;47.662;18.324;2022-11-20T09:36:43;31.17;;;12.75;;
73951;SDS011;62304;47.662;18.324;2022-11-20T09:39:47;36.13;;;16.62;;
73951;SDS011;62304;47.662;18.324;2022-11-20T09:42:53;31.63;;;13.00;;
73951;SDS011;62304;47.662;18.324;2022-11-20T09:49:20;33.60;;;13.32;;
73951;SDS011;62304;47.662;18.324;2022-11-20T09:55:49;38.88;;;15.73;;
73951;SDS011;62304;47.662;18.324;2022-11-20T09:58:57;36.00;;;13.70;;
73951;SDS011;62304;47.662;18.324;2022-11-20T10:02:24;34.47;;;13.33;;
73951;SDS011;62304;47.662;18.324;2022-11-20T10:05:40;34.33;;;13.60;;
73951;SDS011;62304;47.662;18.324;2022-11-20T10:08:53;33.22;;;13.20;;
73951;SDS011;62304;47.662;18.324;2022-11-20T10:25:08;34.97;;;14.32;;
73951;SDS011;62304;47.662;18.324;2022-11-20T10:31:43;33.10;;;13.37;;
73951;SDS011;62304;47.662;18.324;2022-11-20T10:35:04;34.07;;;14.77;;
73951;SDS011;62304;47.662;18.324;2022-11-20T10:38:38;35.38;;;15.23;;
73951;SDS011;62304;47.662;18.324;2022-11-20T10:41:45;34.83;;;13.13;;
73951;SDS011;62304;47.662;18.324;2022-11-20T10:44:55;34.92;;;15.48;;
73951;SDS011;62304;47.662;18.324;2022-11-20T10:48:22;35.47;;;14.83;;
73951;SDS011;62304;47.662;18.324;2022-11-20T10:54:56;42.90;;;16.70;;
73951;SDS011;62304;47.662;18.324;2022-11-20T10:58:59;39.20;;;15.85;;
73951;SDS011;62304;47.662;18.324;2022-11-20T11:01:38;33.13;;;14.30;;
73951;SDS011;62304;47.662;18.324;2022-11-20T11:04:45;31.20;;;14.13;;
73951;SDS011;62304;47.662;18.324;2022-11-20T11:07:55;19.57;;;8.17;;
73951;SDS011;62304;47.662;18.324;2022-11-20T11:11:02;34.67;;;15.15;;
73951;SDS011;62304;47.662;18.324;2022-11-20T11:14:20;26.30;;;10.38;;
73951;SDS011;62304;47.662;18.324;2022-11-20T11:17:30;30.92;;;14.50;;
73951;SDS011;62304;47.662;18.324;2022-11-20T11:20:34;31.43;;;14.97;;
73951;SDS011;62304;47.662;18.324;2022-11-20T11:23:41;32.07;;;15.00;;
73951;SDS011;62304;47.662;18.324;2022-11-20T11:30:17;31.65;;;15.50;;
73951;SDS011;62304;47.662;18.324;2022-11-20T11:33:25;33.22;;;14.70;;
73951;SDS011;62304;47.662;18.324;2022-11-20T11:36:36;36.90;;;15.20;;
73951;SDS011;62304;47.662;18.324;2022-11-20T11:39:39;39.00;;;16.80;;
73951;SDS011;62304;47.662;18.324;2022-11-20T11:42:46;32.22;;;14.82;;
73951;SDS011;62304;47.662;18.324;2022-11-20T11:45:56;37.60;;;16.62;;
73951;SDS011;62304;47.662;18.324;2022-11-20T11:52:12;34.37;;;15.57;;
73951;SDS011;62304;47.662;18.324;2022-11-20T11:55:25;34.90;;;15.63;;
73951;SDS011;62304;47.662;18.324;2022-11-20T11:58:48;34.67;;;15.68;;
73951;SDS011;62304;47.662;18.324;2022-11-20T12:01:55;37.08;;;15.95;;
73951;SDS011;62304;47.662;18.324;2022-11-20T12:11:54;35.00;;;15.70;;
73951;SDS011;62304;47.662;18.324;2022-11-20T12:15:08;36.75;;;15.30;;
73951;SDS011;62304;47.662;18.324;2022-11-20T12:18:16;36.15;;;16.08;;
73951;SDS011;62304;47.662;18.324;2022-11-20T12:34:37;38.40;;;15.95;;
73951;SDS011;62304;47.662;18.324;2022-11-20T12:41:27;36.50;;;15.67;;
73951;SDS011;62304;47.662;18.324;2022-11-20T12:48:32;37.60;;;15.50;;
73951;SDS011;62304;47.662;18.324;2022-11-20T12:51:58;38.65;;;15.82;;
73951;SDS011;62304;47.662;18.324;2022-11-20T12:58:54;38.53;;;15.83;;
73951;SDS011;62304;47.662;18.324;2022-11-20T13:02:26;36.43;;;17.23;;
73951;SDS011;62304;47.662;18.324;2022-11-20T13:08:52;35.47;;;15.02;;
73951;SDS011;62304;47.662;18.324;2022-11-20T13:18:55;32.95;;;15.40;;
73951;SDS011;62304;47.662;18.324;2022-11-20T13:21:58;33.35;;;16.42;;
73951;SDS011;62304;47.662;18.324;2022-11-20T13:25:01;33.45;;;16.10;;
73951;SDS011;62304;47.662;18.324;2022-11-20T13:28:25;35.23;;;16.17;;
73951;SDS011;62304;47.662;18.324;2022-11-20T13:31:32;33.23;;;15.97;;
73951;SDS011;62304;47.662;18.324;2022-11-20T13:34:37;34.00;;;16.12;;
73951;SDS011;62304;47.662;18.324;2022-11-20T13:37:42;34.78;;;16.50;;
73951;SDS011;62304;47.662;18.324;2022-11-20T13:40:53;32.38;;;14.77;;
73951;SDS011;62304;47.662;18.324;2022-11-20T13:43:58;39.67;;;17.77;;
73951;SDS011;62304;47.662;18.324;2022-11-20T13:47:23;39.37;;;19.17;;
73951;SDS011;62304;47.662;18.324;2022-11-20T13:50:38;44.38;;;18.42;;
73951;SDS011;62304;47.662;18.324;2022-11-20T13:57:37;35.45;;;15.80;;
73951;SDS011;62304;47.662;18.324;2022-11-20T14:00:57;44.50;;;16.37;;
73951;SDS011;62304;47.662;18.324;2022-11-20T14:04:15;35.57;;;15.70;;
73951;SDS011;62304;47.662;18.324;2022-11-20T14:07:35;38.65;;;16.92;;
73951;SDS011;62304;47.662;18.324;2022-11-20T14:10:44;30.85;;;14.98;;
73951;SDS011;62304;47.662;18.324;2022-11-20T14:14:04;34.47;;;14.40;;
73951;SDS011;62304;47.662;18.324;2022-11-20T14:17:08;35.97;;;15.57;;
73951;SDS011;62304;47.662;18.324;2022-11-20T14:20:20;33.43;;;14.50;;
73951;SDS011;62304;47.662;18.324;2022-11-20T14:23:28;36.88;;;15.82;;
73951;SDS011;62304;47.662;18.324;2022-11-20T14:26:31;34.00;;;14.98;;
73951;SDS011;62304;47.662;18.324;2022-11-20T14:29:39;36.75;;;15.38;;
73951;SDS011;62304;47.662;18.324;2022-11-20T14:32:43;37.10;;;16.77;;
73951;SDS011;62304;47.662;18.324;2022-11-20T14:35:52;34.40;;;15.50;;
73951;SDS011;62304;47.662;18.324;2022-11-20T14:38:57;35.53;;;16.05;;
73951;SDS011;62304;47.662;18.324;2022-11-20T14:42:01;36.75;;;16.35;;
73951;SDS011;62304;47.662;18.324;2022-11-20T14:45:05;37.50;;;16.27;;
73951;SDS011;62304;47.662;18.324;2022-11-20T14:48:14;37.77;;;15.77;;
73951;SDS011;62304;47.662;18.324;2022-11-20T14:51:26;34.63;;;15.17;;
73951;SDS011;62304;47.662;18.324;2022-11-20T14:54:50;34.53;;;15.27;;
73951;SDS011;62304;47.662;18.324;2022-11-20T14:57:55;35.28;;;14.70;;
73951;SDS011;62304;47.662;18.324;2022-11-20T15:01:04;41.22;;;16.15;;
73951;SDS011;62304;47.662;18.324;2022-11-20T15:04:10;37.10;;;14.57;;
73951;SDS011;62304;47.662;18.324;2022-11-20T15:07:27;40.90;;;16.77;;
73951;SDS011;62304;47.662;18.324;2022-11-20T15:10:32;38.28;;;15.88;;
73951;SDS011;62304;47.662;18.324;2022-11-20T15:13:38;42.22;;;16.10;;
73951;SDS011;62304;47.662;18.324;2022-11-20T15:16:41;35.65;;;15.70;;
73951;SDS011;62304;47.662;18.324;2022-11-20T15:19:44;37.13;;;16.87;;
73951;SDS011;62304;47.662;18.324;2022-11-20T15:22:47;41.53;;;16.40;;
73951;SDS011;62304;47.662;18.324;2022-11-20T15:25:50;39.50;;;15.82;;
73951;SDS011;62304;47.662;18.324;2022-11-20T15:28:53;42.10;;;18.02;;
73951;SDS011;62304;47.662;18.324;2022-11-20T15:31:57;44.35;;;17.12;;
73951;SDS011;62304;47.662;18.324;2022-11-20T15:35:00;40.73;;;15.67;;
73951;SDS011;62304;47.662;18.324;2022-11-20T15:38:04;41.57;;;17.57;;
73951;SDS011;62304;47.662;18.324;2022-11-20T15:41:07;49.33;;;18.87;;
73951;SDS011;62304;47.662;18.324;2022-11-20T15:44:11;46.58;;;20.25;;
73951;SDS011;62304;47.662;18.324;2022-11-20T15:47:14;44.85;;;18.90;;
73951;SDS011;62304;47.662;18.324;2022-11-20T15:50:17;54.53;;;21.80;;
73951;SDS011;62304;47.662;18.324;2022-11-20T15:53:21;61.23;;;25.13;;
73951;SDS011;62304;47.662;18.324;2022-11-20T15:56:25;104.30;;;34.25;;
73951;SDS011;62304;47.662;18.324;2022-11-20T15:59:28;118.70;;;38.33;;
73951;SDS011;62304;47.662;18.324;2022-11-20T16:02:32;160.65;;;49.70;;
73951;SDS011;62304;47.662;18.324;2022-11-20T16:05:35;68.33;;;24.07;;
73951;SDS011;62304;47.662;18.324;2022-11-20T16:08:38;48.20;;;19.23;;
73951;SDS011;62304;47.662;18.324;2022-11-20T16:11:41;47.30;;;20.65;;
73951;SDS011;62304;47.662;18.324;2022-11-20T16:14:45;51.15;;;22.23;;
73951;SDS011;62304;47.662;18.324;2022-11-20T16:18:15;55.12;;;21.35;;
73951;SDS011;62304;47.662;18.324;2022-11-20T16:21:26;55.53;;;22.50;;
73951;SDS011;62304;47.662;18.324;2022-11-20T16:24:34;50.20;;;21.80;;
73951;SDS011;62304;47.662;18.324;2022-11-20T16:27:37;62.13;;;25.75;;
73951;SDS011;62304;47.662;18.324;2022-11-20T16:30:41;69.60;;;27.70;;
73951;SDS011;62304;47.662;18.324;2022-11-20T16:33:51;80.50;;;32.72;;
73951;SDS011;62304;47.662;18.324;2022-11-20T16:36:55;74.83;;;31.07;;
73951;SDS011;62304;47.662;18.324;2022-11-20T16:39:58;110.10;;;44.97;;
73951;SDS011;62304;47.662;18.324;2022-11-20T16:43:06;96.72;;;45.17;;
73951;SDS011;62304;47.662;18.324;2022-11-20T16:46:17;216.60;;;82.62;;
73951;SDS011;62304;47.662;18.324;2022-11-20T16:49:22;107.87;;;44.20;;
73951;SDS011;62304;47.662;18.324;2022-11-20T16:52:27;123.70;;;46.00;;
73951;SDS011;62304;47.662;18.324;2022-11-20T16:55:35;98.03;;;37.55;;
73951;SDS011;62304;47.662;18.324;2022-11-20T16:58:38;94.00;;;37.65;;
73951;SDS011;62304;47.662;18.324;2022-11-20T17:01:42;110.05;;;45.20;;
73951;SDS011;62304;47.662;18.324;2022-11-20T17:04:46;310.23;;;116.25;;
73951;SDS011;62304;47.662;18.324;2022-11-20T17:08:07;134.13;;;52.80;;
73951;SDS011;62304;47.662;18.324;2022-11-20T17:11:12;109.57;;;46.53;;
73951;SDS011;62304;47.662;18.324;2022-11-20T17:14:16;122.00;;;50.45;;
73951;SDS011;62304;47.662;18.324;2022-11-20T17:17:19;115.62;;;48.00;;
73951;SDS011;62304;47.662;18.324;2022-11-20T17:20:22;120.87;;;48.87;;
73951;SDS011;62304;47.662;18.324;2022-11-20T17:23:29;128.90;;;53.43;;
73951;SDS011;62304;47.662;18.324;2022-11-20T17:26:34;183.93;;;69.90;;
73951;SDS011;62304;47.662;18.324;2022-11-20T17:29:39;151.43;;;56.75;;
73951;SDS011;62304;47.662;18.324;2022-11-20T17:32:43;122.90;;;50.33;;
73951;SDS011;62304;47.662;18.324;2022-11-20T17:35:48;112.85;;;45.17;;
73951;SDS011;62304;47.662;18.324;2022-11-20T17:38:52;110.33;;;45.73;;
73951;SDS011;62304;47.662;18.324;2022-11-20T17:41:55;110.30;;;46.33;;
73951;SDS011;62304;47.662;18.324;2022-11-20T17:45:17;110.78;;;46.53;;
73951;SDS011;62304;47.662;18.324;2022-11-20T17:48:20;111.72;;;46.67;;
73951;SDS011;62304;47.662;18.324;2022-11-20T17:51:25;129.23;;;47.08;;
73951;SDS011;62304;47.662;18.324;2022-11-20T17:54:29;122.27;;;47.17;;
73951;SDS011;62304;47.662;18.324;2022-11-20T17:57:34;119.97;;;46.85;;
73951;SDS011;62304;47.662;18.324;2022-11-20T18:01:03;134.48;;;49.22;;
73951;SDS011;62304;47.662;18.324;2022-11-20T18:04:07;116.18;;;50.22;;
73951;SDS011;62304;47.662;18.324;2022-11-20T18:07:12;120.78;;;48.72;;
73951;SDS011;62304;47.662;18.324;2022-11-20T18:10:15;120.23;;;49.57;;
73951;SDS011;62304;47.662;18.324;2022-11-20T18:13:19;120.60;;;47.97;;
73951;SDS011;62304;47.662;18.324;2022-11-20T18:16:24;109.82;;;46.92;;
73951;SDS011;62304;47.662;18.324;2022-11-20T18:19:29;112.70;;;47.13;;
73951;SDS011;62304;47.662;18.324;2022-11-20T18:22:52;114.72;;;47.28;;
73951;SDS011;62304;47.662;18.324;2022-11-20T18:25:58;114.10;;;47.33;;
73951;SDS011;62304;47.662;18.324;2022-11-20T18:29:03;97.57;;;43.17;;
73951;SDS011;62304;47.662;18.324;2022-11-20T18:32:08;134.65;;;56.75;;
73951;SDS011;62304;47.662;18.324;2022-11-20T18:35:12;93.12;;;39.05;;
73951;SDS011;62304;47.662;18.324;2022-11-20T18:38:15;99.10;;;42.30;;
73951;SDS011;62304;47.662;18.324;2022-11-20T18:41:20;91.33;;;38.43;;
73951;SDS011;62304;47.662;18.324;2022-11-20T18:44:45;89.87;;;34.97;;
73951;SDS011;62304;47.662;18.324;2022-11-20T18:47:54;69.18;;;30.83;;
73951;SDS011;62304;47.662;18.324;2022-11-20T18:51:07;65.82;;;26.70;;
73951;SDS011;62304;47.662;18.324;2022-11-20T18:54:10;60.17;;;25.93;;
73951;SDS011;62304;47.662;18.324;2022-11-20T18:57:15;62.08;;;28.00;;
73951;SDS011;62304;47.662;18.324;2022-11-20T19:00:23;79.30;;;32.90;;
73951;SDS011;62304;47.662;18.324;2022-11-20T19:03:26;67.22;;;29.60;;
73951;SDS011;62304;47.662;18.324;2022-11-20T19:06:30;68.23;;;31.07;;
73951;SDS011;62304;47.662;18.324;2022-11-20T19:09:33;75.43;;;33.13;;
73951;SDS011;62304;47.662;18.324;2022-11-20T19:12:37;81.87;;;34.97;;
73951;SDS011;62304;47.662;18.324;2022-11-20T19:15:40;75.60;;;34.63;;